createdAt,value
2023-12-08T00:01:50.223Z,4.30
2023-12-08T00:04:17.417Z,4.40
2023-12-08T00:06:44.623Z,4.40
2023-12-08T00:09:11.843Z,4.30
2023-12-08T00:11:39.029Z,4.40
2023-12-08T00:14:06.184Z,4.40
2023-12-08T00:16:33.331Z,4.40
2023-12-08T00:19:00.548Z,4.40
2023-12-08T00:21:27.995Z,4.40
2023-12-08T00:23:55.386Z,4.40
2023-12-08T00:26:22.603Z,4.40
2023-12-08T00:28:49.753Z,4.40
2023-12-08T00:31:16.908Z,4.40
2023-12-08T00:33:44.854Z,4.40
2023-12-08T00:36:17.972Z,4.40
2023-12-08T00:38:46.158Z,4.40
2023-12-08T00:41:13.308Z,4.40
2023-12-08T00:43:40.479Z,4.50
2023-12-08T00:46:07.648Z,4.50
2023-12-08T00:48:34.855Z,4.50
2023-12-08T00:51:01.983Z,4.50
2023-12-08T00:53:29.349Z,4.50
2023-12-08T00:55:56.584Z,4.50
2023-12-08T00:58:23.754Z,4.50
2023-12-08T01:00:51.186Z,4.50
2023-12-08T01:03:18.501Z,4.50
2023-12-08T01:05:45.594Z,4.50
2023-12-08T01:08:12.738Z,4.60
2023-12-08T01:10:39.830Z,4.60
2023-12-08T01:13:08.091Z,4.60
2023-12-08T01:15:35.428Z,4.60
2023-12-08T01:18:02.646Z,4.60
2023-12-08T01:20:29.972Z,4.60
2023-12-08T01:22:57.579Z,4.60
2023-12-08T01:25:24.682Z,4.60
2023-12-08T01:27:51.972Z,4.60
2023-12-08T01:30:19.363Z,4.70
2023-12-08T01:32:46.623Z,4.70
2023-12-08T01:35:13.956Z,4.70
2023-12-08T01:37:41.184Z,4.70
2023-12-08T01:40:08.963Z,4.70
2023-12-08T01:42:36.091Z,4.80
2023-12-08T01:45:03.229Z,4.80
2023-12-08T01:47:31.692Z,4.80
2023-12-08T01:49:58.920Z,4.80
2023-12-08T01:52:26.342Z,4.80
2023-12-08T01:54:58.601Z,4.90
2023-12-08T01:57:26.270Z,4.90
2023-12-08T01:59:55.159Z,4.90
2023-12-08T02:02:23.305Z,4.90
2023-12-08T02:04:55.019Z,4.90
2023-12-08T02:07:22.384Z,5.00
2023-12-08T02:09:49.494Z,5.00
2023-12-08T02:12:16.768Z,5.00
2023-12-08T02:14:44.524Z,5.00
2023-12-08T02:17:19.780Z,5.10
2023-12-08T02:19:48.554Z,5.00
2023-12-08T02:22:18.017Z,5.00
2023-12-08T02:24:45.383Z,5.10
2023-12-08T02:27:12.972Z,5.10
2023-12-08T02:29:43.094Z,5.10
2023-12-08T02:32:26.296Z,5.10
2023-12-08T02:34:54.388Z,5.10
2023-12-08T02:37:22.830Z,5.20
2023-12-08T02:39:50.725Z,5.20
2023-12-08T02:42:19.055Z,5.20
2023-12-08T02:44:46.247Z,5.20
2023-12-08T02:47:13.382Z,5.20
2023-12-08T02:49:40.637Z,5.30
2023-12-08T02:52:07.797Z,5.30
2023-12-08T02:54:35.065Z,5.30
2023-12-08T02:57:02.158Z,5.30
2023-12-08T02:59:47.717Z,5.30
2023-12-08T03:02:14.872Z,5.40
2023-12-08T03:04:41.991Z,5.30
2023-12-08T03:07:09.168Z,5.40
2023-12-08T03:09:36.183Z,5.40
2023-12-08T03:12:03.411Z,5.40
2023-12-08T03:14:30.532Z,5.40
2023-12-08T03:17:17.127Z,5.40
2023-12-08T03:19:44.275Z,5.40
2023-12-08T03:22:11.379Z,5.40
2023-12-08T03:24:38.519Z,5.40
2023-12-08T03:27:05.770Z,5.40
2023-12-08T03:29:32.962Z,5.50
2023-12-08T03:32:00.045Z,5.50
2023-12-08T03:34:45.734Z,5.50
2023-12-08T03:37:12.871Z,5.50
2023-12-08T03:39:39.935Z,5.50
2023-12-08T03:42:07.223Z,5.50
2023-12-08T03:44:34.445Z,5.50
2023-12-08T03:47:01.626Z,5.50
2023-12-08T03:49:28.962Z,5.60
2023-12-08T03:51:56.199Z,5.60
2023-12-08T03:54:23.263Z,5.60
2023-12-08T03:56:50.435Z,5.60
2023-12-08T03:59:17.554Z,5.60
2023-12-08T04:01:44.669Z,5.60
2023-12-08T04:04:25.183Z,5.70
2023-12-08T04:06:55.431Z,5.60
2023-12-08T04:09:22.586Z,5.70
2023-12-08T04:11:49.744Z,5.70
2023-12-08T04:14:16.833Z,5.70
2023-12-08T04:16:43.992Z,5.70
2023-12-08T04:19:14.166Z,5.70
2023-12-08T04:21:41.680Z,5.70
2023-12-08T04:24:08.878Z,5.80
2023-12-08T04:26:36.237Z,5.80
2023-12-08T04:29:03.546Z,5.80
2023-12-08T04:31:30.709Z,5.80
2023-12-08T04:33:57.988Z,5.90
2023-12-08T04:36:25.206Z,5.90
2023-12-08T04:38:52.466Z,5.90
2023-12-08T04:41:19.716Z,5.90
2023-12-08T04:43:46.763Z,5.90
2023-12-08T04:46:14.376Z,5.90
2023-12-08T04:48:41.520Z,5.90
2023-12-08T04:51:08.702Z,5.90
2023-12-08T04:53:35.960Z,5.90
2023-12-08T04:56:03.266Z,5.90
2023-12-08T04:58:30.288Z,5.90
2023-12-08T05:00:57.570Z,5.90
2023-12-08T05:03:25.305Z,5.90
2023-12-08T05:05:52.678Z,5.90
2023-12-08T05:08:19.887Z,5.90
2023-12-08T05:10:47.093Z,5.90
2023-12-08T05:13:14.268Z,6.00
2023-12-08T05:15:41.427Z,6.00
2023-12-08T05:18:08.949Z,6.00
2023-12-08T05:20:36.217Z,6.00
2023-12-08T05:23:03.343Z,6.00
2023-12-08T05:25:30.923Z,6.00
2023-12-08T05:27:58.227Z,6.10
2023-12-08T05:30:25.391Z,6.10
2023-12-08T05:32:52.523Z,6.20
2023-12-08T05:35:19.726Z,6.20
2023-12-08T05:37:46.959Z,6.20
2023-12-08T05:40:14.384Z,6.20
2023-12-08T05:42:41.564Z,6.20
2023-12-08T05:45:09.946Z,6.30
2023-12-08T05:47:37.201Z,6.30
2023-12-08T05:50:05.873Z,6.30
2023-12-08T05:52:33.355Z,6.30
2023-12-08T05:55:00.504Z,6.30
2023-12-08T05:57:28.072Z,6.30
2023-12-08T05:59:55.543Z,6.40
2023-12-08T06:02:22.770Z,6.30
2023-12-08T06:04:49.855Z,6.40
2023-12-08T06:07:17.163Z,6.40
2023-12-08T06:09:44.331Z,6.40
2023-12-08T06:12:11.502Z,6.40
2023-12-08T06:14:38.681Z,6.40
2023-12-08T06:17:07.320Z,6.50
2023-12-08T06:19:35.180Z,6.50
2023-12-08T06:22:02.289Z,6.50
2023-12-08T06:24:48.467Z,6.50
2023-12-08T06:27:16.445Z,6.50
2023-12-08T06:29:43.693Z,6.50
2023-12-08T06:32:10.969Z,6.60
2023-12-08T06:34:38.386Z,6.60
2023-12-08T06:37:05.651Z,6.60
2023-12-08T06:39:33.536Z,6.60
2023-12-08T06:42:00.736Z,6.60
2023-12-08T06:44:29.027Z,6.70
2023-12-08T06:46:56.160Z,6.70
2023-12-08T06:49:23.350Z,6.70
2023-12-08T06:51:50.583Z,6.70
2023-12-08T06:54:17.859Z,6.80
2023-12-08T06:56:45.043Z,6.80
2023-12-08T06:59:12.310Z,6.80
2023-12-08T07:01:39.534Z,6.90
2023-12-08T07:04:06.694Z,6.90
2023-12-08T07:06:36.826Z,6.90
2023-12-08T07:09:04.347Z,6.90
2023-12-08T07:11:31.483Z,6.90
2023-12-08T07:13:58.736Z,6.90
2023-12-08T07:16:25.947Z,6.90
2023-12-08T07:18:55.603Z,6.90
2023-12-08T07:21:22.956Z,6.90
2023-12-08T07:23:50.070Z,7.00
2023-12-08T07:26:17.802Z,7.00
2023-12-08T07:28:44.994Z,7.00
2023-12-08T07:31:13.568Z,7.00
2023-12-08T07:33:40.905Z,7.10
2023-12-08T07:36:08.223Z,7.10
2023-12-08T07:38:35.922Z,7.10
2023-12-08T07:41:04.174Z,7.10
2023-12-08T07:43:31.317Z,7.10
2023-12-08T07:45:58.454Z,7.10
2023-12-08T07:48:26.377Z,7.20
2023-12-08T07:50:53.535Z,7.20
2023-12-08T07:53:20.671Z,7.20
2023-12-08T07:55:47.937Z,7.20
2023-12-08T07:58:15.688Z,7.20
2023-12-08T08:00:43.817Z,7.30
2023-12-08T08:03:11.091Z,7.30
2023-12-08T08:05:38.374Z,7.30
2023-12-08T08:08:08.324Z,7.30
2023-12-08T08:10:36.221Z,7.30
2023-12-08T08:13:03.290Z,7.30
2023-12-08T08:15:30.475Z,7.40
2023-12-08T08:17:58.019Z,7.30
2023-12-08T08:20:26.845Z,7.40
2023-12-08T08:22:54.523Z,7.40
2023-12-08T08:25:21.690Z,7.40
2023-12-08T08:27:53.555Z,7.40
2023-12-08T08:30:23.798Z,7.40
2023-12-08T08:32:50.968Z,7.50
2023-12-08T08:35:18.061Z,7.50
2023-12-08T08:37:46.088Z,7.50
2023-12-08T08:40:13.388Z,7.50
2023-12-08T08:42:40.774Z,7.50
2023-12-08T08:45:08.559Z,7.50
2023-12-08T08:47:35.839Z,7.60
2023-12-08T08:50:03.684Z,7.60
2023-12-08T08:52:31.587Z,7.60
2023-12-08T08:54:58.997Z,7.60
2023-12-08T08:57:26.228Z,7.70
2023-12-08T08:59:53.465Z,7.70
2023-12-08T09:02:20.545Z,7.70
2023-12-08T09:04:47.717Z,7.80
2023-12-08T09:07:15.101Z,7.80
2023-12-08T09:09:44.854Z,7.80
2023-12-08T09:12:12.338Z,7.80
2023-12-08T09:14:39.620Z,7.90
2023-12-08T09:17:07.486Z,7.90
2023-12-08T09:19:36.501Z,7.90
2023-12-08T09:22:04.599Z,7.90
2023-12-08T09:24:31.800Z,7.90
2023-12-08T09:27:01.949Z,8.00
2023-12-08T09:29:29.146Z,8.00
2023-12-08T09:31:56.256Z,8.00
2023-12-08T09:34:23.521Z,8.00
2023-12-08T09:37:25.094Z,8.00
2023-12-08T09:39:39.280Z,8.00
2023-12-08T09:42:11.818Z,8.10
2023-12-08T09:44:39.063Z,8.10
2023-12-08T09:47:09.863Z,8.10
2023-12-08T09:49:42.334Z,8.20
2023-12-08T09:52:10.664Z,8.20
2023-12-08T09:54:37.867Z,8.20
2023-12-08T09:57:06.925Z,8.20
2023-12-08T09:59:36.178Z,8.20
2023-12-08T10:02:03.438Z,8.20
2023-12-08T10:04:30.888Z,8.30
2023-12-08T10:06:58.633Z,8.20
2023-12-08T10:09:27.672Z,8.30
2023-12-08T10:11:54.907Z,8.30
2023-12-08T10:14:22.482Z,8.30
2023-12-08T10:16:49.672Z,8.30
2023-12-08T10:19:22.073Z,8.30
2023-12-08T10:22:09.536Z,8.30
2023-12-08T10:24:36.706Z,8.40
2023-12-08T10:27:04.922Z,8.40
2023-12-08T10:29:33.496Z,8.40
2023-12-08T10:32:01.201Z,8.40
2023-12-08T10:34:29.271Z,8.40
2023-12-08T10:36:56.942Z,8.40
2023-12-08T10:39:25.666Z,8.40
2023-12-08T10:41:53.498Z,8.40
2023-12-08T10:44:24.148Z,8.50
2023-12-08T10:46:52.977Z,8.50
2023-12-08T10:49:20.940Z,8.50
2023-12-08T10:51:48.768Z,8.50
2023-12-08T10:54:20.152Z,8.60
2023-12-08T10:56:49.304Z,8.60
2023-12-08T10:59:26.072Z,8.60
2023-12-08T11:01:56.582Z,8.70
2023-12-08T11:04:27.991Z,8.70
2023-12-08T11:07:05.289Z,8.80
2023-12-08T11:09:37.086Z,8.80
2023-12-08T11:12:05.530Z,8.90
2023-12-08T11:14:38.027Z,8.80
2023-12-08T11:17:14.565Z,8.90
2023-12-08T11:19:42.709Z,8.90
2023-12-08T11:22:10.335Z,8.90
2023-12-08T11:24:38.342Z,8.90
2023-12-08T11:27:08.612Z,9.00
2023-12-08T11:29:58.635Z,9.00
2023-12-08T11:32:46.293Z,9.00
2023-12-08T11:35:18.190Z,9.10
2023-12-08T11:37:48.320Z,9.10
2023-12-08T11:40:15.547Z,9.10
2023-12-08T11:42:48.341Z,9.10
2023-12-08T11:45:15.616Z,9.10
2023-12-08T11:47:43.799Z,9.20
2023-12-08T11:50:12.707Z,9.20
2023-12-08T11:52:43.119Z,9.20
2023-12-08T11:55:22.824Z,9.30
2023-12-08T11:58:05.566Z,9.20
2023-12-08T12:00:35.265Z,9.20
2023-12-08T12:03:05.176Z,9.30
2023-12-08T12:05:32.971Z,9.20
2023-12-08T12:08:00.211Z,9.30
2023-12-08T12:10:30.637Z,9.30
2023-12-08T12:13:06.474Z,9.30
2023-12-08T12:15:35.353Z,9.30
2023-12-08T12:18:04.214Z,9.40
2023-12-08T12:20:41.268Z,9.40
2023-12-08T12:23:08.666Z,9.40
2023-12-08T12:25:35.865Z,9.40
2023-12-08T12:28:03.408Z,9.40
2023-12-08T12:30:32.470Z,9.40
2023-12-08T12:33:00.164Z,9.50
2023-12-08T12:35:27.448Z,9.50
2023-12-08T12:37:55.725Z,9.60
2023-12-08T12:40:23.449Z,9.60
2023-12-08T12:42:50.706Z,9.60
2023-12-08T12:45:47.070Z,9.70
2023-12-08T12:48:14.698Z,9.70
2023-12-08T12:50:50.733Z,9.80
2023-12-08T12:53:18.170Z,9.90
2023-12-08T12:55:47.062Z,9.90
2023-12-08T12:58:21.047Z,10.00
2023-12-08T13:00:48.824Z,10.00
2023-12-08T13:03:18.591Z,10.10
2023-12-08T13:05:51.054Z,10.20
2023-12-08T13:08:19.039Z,10.10
2023-12-08T13:10:47.271Z,10.20
2023-12-08T13:13:14.498Z,10.20
2023-12-08T13:15:42.672Z,10.20
2023-12-08T13:18:10.590Z,10.20
2023-12-08T13:20:39.338Z,10.30
2023-12-08T13:23:08.072Z,10.30
2023-12-08T13:25:35.182Z,10.30
2023-12-08T13:28:02.361Z,10.40
2023-12-08T13:30:29.612Z,10.40
2023-12-08T13:32:57.155Z,10.40
2023-12-08T13:35:24.470Z,10.40
2023-12-08T13:37:51.684Z,10.40
2023-12-08T13:40:18.870Z,10.40
2023-12-08T13:42:45.980Z,10.40
2023-12-08T13:45:13.315Z,10.40
2023-12-08T13:47:40.783Z,10.40
2023-12-08T13:50:08.306Z,10.40
2023-12-08T13:52:53.983Z,10.40
2023-12-08T13:55:21.465Z,10.40
2023-12-08T13:57:49.235Z,10.40
2023-12-08T14:00:20.177Z,10.40
2023-12-08T14:02:47.605Z,10.40
2023-12-08T14:05:14.764Z,10.40
2023-12-08T14:07:41.994Z,10.40
2023-12-08T14:10:09.920Z,10.40
2023-12-08T14:12:37.485Z,10.40
2023-12-08T14:15:05.732Z,10.40
2023-12-08T14:17:33.176Z,10.40
2023-12-08T14:20:00.721Z,10.40
2023-12-08T14:22:28.303Z,10.40
2023-12-08T14:24:55.529Z,10.40
2023-12-08T14:27:25.738Z,10.30
2023-12-08T14:29:53.083Z,10.30
2023-12-08T14:32:20.238Z,10.30
2023-12-08T14:34:47.570Z,10.30
2023-12-08T14:37:14.825Z,10.20
2023-12-08T14:39:42.001Z,10.20
2023-12-08T14:42:09.101Z,10.20
2023-12-08T14:44:37.197Z,10.20
2023-12-08T14:47:04.520Z,10.20
2023-12-08T14:49:31.713Z,10.20
2023-12-08T14:51:58.913Z,10.10
2023-12-08T14:54:29.372Z,10.20
2023-12-08T14:57:00.948Z,10.10
2023-12-08T14:59:28.080Z,10.00
2023-12-08T15:01:55.241Z,10.10
2023-12-08T15:04:22.841Z,10.10
2023-12-08T15:06:50.129Z,10.00
2023-12-08T15:09:17.263Z,10.00
2023-12-08T15:11:44.853Z,10.00
2023-12-08T15:14:12.024Z,10.00
2023-12-08T15:16:40.713Z,9.90
2023-12-08T15:19:09.265Z,9.90
2023-12-08T15:21:37.931Z,10.00
2023-12-08T15:24:05.331Z,9.90
2023-12-08T15:26:32.463Z,9.90
2023-12-08T15:28:59.516Z,9.90
2023-12-08T15:31:27.795Z,9.90
2023-12-08T15:33:56.703Z,9.90
2023-12-08T15:36:23.989Z,9.90
2023-12-08T15:38:51.021Z,9.80
2023-12-08T15:41:18.196Z,9.70
2023-12-08T15:43:45.334Z,9.70
2023-12-08T15:46:12.855Z,9.70
2023-12-08T15:48:40.452Z,9.60
2023-12-08T15:51:12.547Z,9.60
2023-12-08T15:53:39.732Z,9.50
2023-12-08T15:56:07.235Z,9.50
2023-12-08T15:58:34.367Z,9.50
2023-12-08T16:01:01.688Z,9.40
2023-12-08T16:03:29.221Z,9.40
2023-12-08T16:05:57.831Z,9.40
2023-12-08T16:08:26.014Z,9.30
2023-12-08T16:10:53.158Z,9.30
2023-12-08T16:13:20.327Z,9.20
2023-12-08T16:15:47.917Z,9.20
2023-12-08T16:18:15.197Z,9.10
2023-12-08T16:20:42.493Z,9.10
2023-12-08T16:23:09.639Z,9.00
2023-12-08T16:25:36.701Z,9.00
2023-12-08T16:28:06.818Z,8.90
2023-12-08T16:30:34.351Z,8.90
2023-12-08T16:33:01.505Z,8.90
2023-12-08T16:35:28.638Z,8.80
2023-12-08T16:37:55.834Z,8.80
2023-12-08T16:40:22.943Z,8.80
2023-12-08T16:42:50.027Z,8.80
2023-12-08T16:45:17.408Z,8.70
2023-12-08T16:47:44.632Z,8.80
2023-12-08T16:50:12.264Z,8.70
2023-12-08T16:52:39.478Z,8.70
2023-12-08T16:55:07.208Z,8.70
2023-12-08T16:57:34.357Z,8.70
2023-12-08T17:00:01.548Z,8.60
2023-12-08T17:02:28.961Z,8.60
2023-12-08T17:04:56.368Z,8.60
2023-12-08T17:07:23.498Z,8.60
2023-12-08T17:09:50.664Z,8.60
2023-12-08T17:12:17.786Z,8.60
2023-12-08T17:14:44.972Z,8.50
2023-12-08T17:17:12.375Z,8.50
2023-12-08T17:19:39.893Z,8.40
2023-12-08T17:22:06.980Z,8.40
2023-12-08T17:24:34.114Z,8.40
2023-12-08T17:27:01.366Z,8.40
2023-12-08T17:29:28.480Z,8.40
2023-12-08T17:31:55.720Z,8.40
2023-12-08T17:34:23.499Z,8.40
2023-12-08T17:36:54.226Z,8.40
2023-12-08T17:39:21.384Z,8.30
2023-12-08T17:41:48.719Z,8.30
2023-12-08T17:44:15.943Z,8.30
2023-12-08T17:46:43.144Z,8.30
2023-12-08T17:49:10.919Z,8.30
2023-12-08T17:51:38.285Z,8.30
2023-12-08T17:54:05.532Z,8.30
2023-12-08T17:56:32.719Z,8.30
2023-12-08T17:58:59.803Z,8.30
2023-12-08T18:01:26.874Z,8.30
2023-12-08T18:03:55.950Z,8.20
2023-12-08T18:06:26.744Z,8.20
2023-12-08T18:08:54.081Z,8.20
2023-12-08T18:11:22.635Z,8.20
2023-12-08T18:13:51.564Z,8.20
2023-12-08T18:16:28.934Z,8.10
2023-12-08T18:18:58.041Z,8.10
2023-12-08T18:21:35.177Z,8.10
2023-12-08T18:24:02.444Z,8.00
2023-12-08T18:26:29.727Z,8.00
2023-12-08T18:29:08.082Z,8.00
2023-12-08T18:31:39.358Z,8.00
2023-12-08T18:34:06.937Z,7.90
2023-12-08T18:36:36.999Z,8.00
2023-12-08T18:39:05.459Z,8.00
2023-12-08T18:41:33.642Z,8.00
2023-12-08T18:44:01.015Z,8.00
2023-12-08T18:46:28.176Z,7.90
2023-12-08T18:48:58.913Z,8.00
2023-12-08T18:51:29.101Z,7.90
2023-12-08T18:53:57.734Z,8.00
2023-12-08T18:56:25.304Z,7.90
2023-12-08T18:58:55.190Z,7.90
2023-12-08T19:01:25.036Z,7.90
2023-12-08T19:03:52.862Z,7.90
2023-12-08T19:06:20.668Z,7.90
2023-12-08T19:08:48.320Z,7.90
2023-12-08T19:11:15.864Z,7.80
2023-12-08T19:13:44.510Z,7.80
2023-12-08T19:16:11.862Z,7.80
2023-12-08T19:18:39.128Z,7.70
2023-12-08T19:21:06.456Z,7.80
2023-12-08T19:23:35.100Z,7.70
2023-12-08T19:26:03.455Z,7.70
2023-12-08T19:28:30.642Z,7.70
2023-12-08T19:30:57.786Z,7.60
2023-12-08T19:33:25.614Z,7.60
2023-12-08T19:35:52.919Z,7.60
2023-12-08T19:38:20.088Z,7.50
2023-12-08T19:40:47.644Z,7.50
2023-12-08T19:43:14.978Z,7.50
2023-12-08T19:45:42.778Z,7.40
2023-12-08T19:48:11.755Z,7.40
2023-12-08T19:50:40.088Z,7.40
2023-12-08T19:53:08.532Z,7.40
2023-12-08T19:55:35.666Z,7.40
2023-12-08T19:58:02.944Z,7.40
2023-12-08T20:00:30.113Z,7.40
2023-12-08T20:02:57.287Z,7.40
2023-12-08T20:05:25.756Z,7.40
2023-12-08T20:07:52.818Z,7.40
2023-12-08T20:10:20.056Z,7.40
2023-12-08T20:12:47.190Z,7.40
2023-12-08T20:15:17.341Z,7.40
2023-12-08T20:17:48.292Z,7.40
2023-12-08T20:20:15.753Z,7.40
2023-12-08T20:22:43.603Z,7.40
2023-12-08T20:25:12.852Z,7.40
2023-12-08T20:27:43.099Z,7.40
2023-12-08T20:30:11.865Z,7.40
2023-12-08T20:32:39.058Z,7.40
2023-12-08T20:35:06.556Z,7.40
2023-12-08T20:37:33.612Z,7.40
2023-12-08T20:40:00.889Z,7.40
2023-12-08T20:42:28.980Z,7.40
2023-12-08T20:44:56.302Z,7.40
2023-12-08T20:47:23.524Z,7.40
2023-12-08T20:49:51.477Z,7.40
2023-12-08T20:52:18.575Z,7.40
2023-12-08T20:54:47.313Z,7.40
2023-12-08T20:57:14.642Z,7.40
2023-12-08T20:59:46.552Z,7.30
2023-12-08T21:02:14.334Z,7.30
2023-12-08T21:04:41.470Z,7.30
2023-12-08T21:07:08.856Z,7.30
2023-12-08T21:09:36.194Z,7.30
2023-12-08T21:12:04.178Z,7.20
2023-12-08T21:14:31.482Z,7.20
2023-12-08T21:16:58.630Z,7.20
2023-12-08T21:19:26.599Z,7.20
2023-12-08T21:21:54.484Z,7.20
2023-12-08T21:24:21.861Z,7.20
2023-12-08T21:26:49.216Z,7.20
2023-12-08T21:29:17.414Z,7.20
2023-12-08T21:31:51.935Z,7.20
2023-12-08T21:34:19.256Z,7.20
2023-12-08T21:36:46.555Z,7.20
2023-12-08T21:39:14.072Z,7.20
2023-12-08T21:41:41.279Z,7.20
2023-12-08T21:44:09.474Z,7.20
2023-12-08T21:46:37.765Z,7.20
2023-12-08T21:49:05.216Z,7.20
2023-12-08T21:51:32.663Z,7.20
2023-12-08T21:54:00.036Z,7.20
2023-12-08T21:56:30.234Z,7.20
2023-12-08T21:59:02.749Z,7.20
2023-12-08T22:01:31.714Z,7.20
2023-12-08T22:03:59.700Z,7.20
2023-12-08T22:06:27.492Z,7.10
2023-12-08T22:08:54.797Z,7.10
2023-12-08T22:11:22.020Z,7.10
2023-12-08T22:13:49.210Z,7.10
2023-12-08T22:16:16.461Z,7.10
2023-12-08T22:18:43.808Z,7.10
2023-12-08T22:21:11.797Z,7.10
2023-12-08T22:23:39.313Z,7.10
2023-12-08T22:26:06.844Z,7.10
2023-12-08T22:28:34.192Z,7.10
2023-12-08T22:31:01.360Z,7.00
2023-12-08T22:33:28.766Z,7.00
2023-12-08T22:35:56.256Z,7.00
2023-12-08T22:38:23.421Z,7.00
2023-12-08T22:40:50.499Z,7.00
2023-12-08T22:43:17.559Z,7.00
2023-12-08T22:45:44.652Z,7.00
2023-12-08T22:48:13.925Z,7.00
2023-12-08T22:50:49.009Z,7.00
2023-12-08T22:53:17.703Z,7.00
2023-12-08T22:55:45.190Z,7.00
2023-12-08T22:58:12.410Z,7.10
2023-12-08T23:00:39.595Z,7.10
2023-12-08T23:03:06.961Z,7.00
2023-12-08T23:05:34.347Z,7.10
2023-12-08T23:08:01.869Z,7.10
2023-12-08T23:10:28.986Z,7.00
2023-12-08T23:12:56.089Z,7.10
2023-12-08T23:15:23.611Z,7.10
2023-12-08T23:17:51.341Z,7.10
2023-12-08T23:20:18.531Z,7.10
2023-12-08T23:22:45.679Z,7.00
2023-12-08T23:25:13.086Z,7.10
2023-12-08T23:27:40.178Z,7.10
2023-12-08T23:30:08.070Z,7.00
2023-12-08T23:32:35.365Z,7.10
2023-12-08T23:35:05.311Z,7.00
2023-12-08T23:37:32.938Z,7.00
2023-12-08T23:40:00.487Z,7.00
2023-12-08T23:42:28.344Z,7.00
2023-12-08T23:44:55.816Z,7.00
2023-12-08T23:47:23.111Z,7.00
2023-12-08T23:49:50.210Z,7.00
2023-12-08T23:52:17.393Z,7.00
2023-12-08T23:54:45.442Z,7.00
2023-12-08T23:57:12.764Z,7.00
2023-12-08T23:59:39.919Z,7.00
